Time;durP1;ratioP1;P1;durP2;ratioP2;P2;SDS_P1;SDS_P2;PMS_P1;PMS_P2;Temp;Humidity;BMP_temperature;BMP_pressure;BME280_temperature;BME280_humidity;BME280_pressure;Samples;Min_cycle;Max_cycle;Signal;HPM_P1;HPM_P2
2021/06/02 00:00:02;;;;;;;3.25;2.10;;;19.90;69.90;;;;;;4123263;28;20034;-83
2021/06/02 00:02:05;;;;;;;4.43;2.03;;;19.90;69.60;;;;;;4123312;28;20034;-83
2021/06/02 00:04:07;;;;;;;2.95;2.28;;;19.80;70.40;;;;;;4140543;28;20034;-83
2021/06/02 00:06:10;;;;;;;2.65;2.17;;;19.80;70.10;;;;;;4140659;28;20026;-83
2021/06/02 00:08:11;;;;;;;;;;;19.70;70.50;;;;;;4136337;28;20057;-83
2021/06/02 00:10:13;;;;;;;3.45;2.13;;;19.70;71.50;;;;;;4140310;28;20007;-83
2021/06/02 00:12:14;;;;;;;3.72;2.00;;;19.70;71.30;;;;;;4139626;28;20109;-83
2021/06/02 00:14:18;;;;;;;3.60;2.03;;;19.70;72.40;;;;;;4139959;28;23866;-83
2021/06/02 00:16:19;;;;;;;2.85;1.92;;;19.70;72.60;;;;;;4139641;28;20037;-83
2021/06/02 00:18:19;;;;;;;2.63;1.92;;;19.60;73.10;;;;;;4139302;28;20046;-83
2021/06/02 00:20:20;;;;;;;3.45;2.25;;;19.60;73.00;;;;;;4136584;28;20097;-83
2021/06/02 00:22:21;;;;;;;3.88;2.10;;;19.60;72.90;;;;;;4141017;28;20058;-83
2021/06/02 00:24:22;;;;;;;5.15;2.25;;;19.60;73.70;;;;;;4123472;28;20073;-83
2021/06/02 00:26:22;;;;;;;2.53;2.08;;;19.60;74.80;;;;;;4139159;28;20035;-83
2021/06/02 00:28:23;;;;;;;4.20;2.45;;;19.50;74.50;;;;;;4140338;28;20038;-83
2021/06/02 00:30:24;;;;;;;4.00;2.03;;;19.50;74.00;;;;;;4122515;28;20110;-83
2021/06/02 00:32:25;;;;;;;3.45;2.20;;;19.50;73.90;;;;;;4123667;28;20038;-83
2021/06/02 00:34:27;;;;;;;5.43;2.25;;;19.40;75.70;;;;;;4140398;28;20470;-83
2021/06/02 00:36:29;;;;;;;4.85;2.55;;;19.40;75.50;;;;;;4139024;28;20062;-83
2021/06/02 00:38:30;;;;;;;4.70;2.03;;;19.40;75.20;;;;;;4119511;28;20065;-84
2021/06/02 00:40:38;;;;;;;4.13;2.30;;;19.40;76.10;;;;;;4124175;28;20403;-84
2021/06/02 00:42:39;;;;;;;3.17;2.08;;;19.40;77.40;;;;;;4137977;28;20041;-83
2021/06/02 00:44:40;;;;;;;4.05;2.42;;;19.30;76.80;;;;;;4140266;28;20045;-83
2021/06/02 00:46:42;;;;;;;3.50;2.30;;;19.30;77.80;;;;;;4121936;28;20034;-83
2021/06/02 00:48:43;;;;;;;3.22;2.25;;;19.20;77.00;;;;;;4140558;28;20030;-83
2021/06/02 00:50:49;;;;;;;4.93;2.58;;;19.20;77.30;;;;;;4140583;28;20049;-83
2021/06/02 00:52:50;;;;;;;4.93;2.65;;;19.20;77.90;;;;;;4138097;28;20042;-84
2021/06/02 00:54:52;;;;;;;5.63;2.25;;;19.20;78.50;;;;;;4141133;28;21226;-83
2021/06/02 00:56:55;;;;;;;2.90;2.30;;;19.10;78.30;;;;;;4123971;28;20700;-83
2021/06/02 00:58:59;;;;;;;3.45;2.47;;;19.10;78.40;;;;;;4139873;28;20514;-83
2021/06/02 01:01:00;;;;;;;3.92;2.35;;;19.10;78.60;;;;;;4139791;28;20087;-83
2021/06/02 01:03:05;;;;;;;3.78;2.40;;;19.10;79.10;;;;;;4125219;28;20129;-83
2021/06/02 01:05:06;;;;;;;3.90;2.65;;;19.00;79.60;;;;;;4139563;28;20042;-83
2021/06/02 01:07:09;;;;;;;2.75;2.20;;;19.00;81.30;;;;;;4137287;28;20052;-83
2021/06/02 01:09:10;;;;;;;5.00;2.53;;;19.00;82.20;;;;;;4139033;28;20549;-83
2021/06/02 01:11:11;;;;;;;2.50;2.10;;;19.00;82.20;;;;;;4138001;28;20048;-83
2021/06/02 01:13:14;;;;;;;3.28;2.33;;;18.90;82.20;;;;;;4139258;28;20037;-83
2021/06/02 01:15:18;;;;;;;4.65;2.78;;;18.90;82.00;;;;;;4122605;28;20034;-83
2021/06/02 01:17:23;;;;;;;2.83;2.28;;;18.90;82.90;;;;;;4141827;28;20053;-83
2021/06/02 01:19:24;;;;;;;4.03;2.58;;;18.80;83.40;;;;;;4125105;28;20080;-83
2021/06/02 01:21:27;;;;;;;4.90;2.83;;;18.80;83.10;;;;;;4138090;28;20030;-83
2021/06/02 01:23:28;;;;;;;5.13;2.58;;;18.70;83.80;;;;;;4135538;28;20122;-83
2021/06/02 01:25:29;;;;;;;3.22;2.60;;;18.70;83.70;;;;;;4121473;28;20107;-83
2021/06/02 01:27:30;;;;;;;4.57;2.78;;;18.60;83.60;;;;;;4138751;28;20040;-83
2021/06/02 01:29:32;;;;;;;4.53;3.40;;;18.60;84.60;;;;;;4123517;28;20113;-83
2021/06/02 01:32:28;;;;;;;4.68;2.95;;;18.60;85.90;;;;;;4138727;28;20077;-83
2021/06/02 01:34:34;;;;;;;4.10;3.00;;;18.60;86.50;;;;;;4055384;29;20533;-83
2021/06/02 01:37:06;;;;;;;6.57;3.13;;;18.50;88.80;;;;;;4135816;28;20022;-83
2021/06/02 01:39:33;;;;;;;4.47;3.25;;;18.50;89.20;;;;;;4137844;28;20069;-83
2021/06/02 01:42:01;;;;;;;3.60;2.85;;;18.50;90.40;;;;;;4137168;28;20041;-83
2021/06/02 01:44:27;;;;;;;4.97;2.80;;;18.40;91.40;;;;;;4138978;28;20068;-83
2021/06/02 01:46:55;;;;;;;3.15;2.38;;;18.30;90.30;;;;;;4121889;28;20030;-83
2021/06/02 01:49:32;;;;;;;5.50;3.05;;;18.30;91.50;;;;;;4118822;28;20531;-83
2021/06/02 01:52:16;;;;;;;3.60;2.60;;;18.30;92.80;;;;;;4132912;28;20030;-83
2021/06/02 01:55:03;;;;;;;6.30;2.75;;;18.30;91.90;;;;;;4104797;28;20044;-83
2021/06/02 01:57:30;;;;;;;4.45;2.80;;;18.20;92.70;;;;;;4046527;29;20405;-83
2021/06/02 01:59:52;;;;;;;4.85;3.20;;;18.20;93.00;;;;;;4138830;28;20485;-83
2021/06/02 02:02:07;;;;;;;3.08;2.47;;;18.20;92.90;;;;;;4118082;28;20027;-83
2021/06/02 02:04:16;;;;;;;6.40;2.88;;;18.20;93.10;;;;;;4118011;28;20653;-83
2021/06/02 02:06:36;;;;;;;3.55;2.53;;;18.20;93.20;;;;;;4121314;28;20100;-83
2021/06/02 02:08:58;;;;;;;4.55;2.90;;;18.10;94.00;;;;;;4123560;28;20077;-83
2021/06/02 02:11:07;;;;;;;3.08;2.47;;;18.10;94.10;;;;;;4137262;28;20030;-83
2021/06/02 02:13:45;;;;;;;7.35;2.40;;;18.00;94.90;;;;;;4138821;28;20121;-83
2021/06/02 02:15:59;;;;;;;3.78;2.83;;;18.00;94.80;;;;;;4137368;28;20038;-83
2021/06/02 02:18:35;;;;;;;3.65;2.72;;;18.00;94.80;;;;;;4122453;28;20129;-83
2021/06/02 02:20:46;;;;;;;4.93;2.67;;;18.00;95.20;;;;;;4135816;28;20118;-83
2021/06/02 02:23:01;;;;;;;3.53;2.42;;;18.00;94.90;;;;;;4134369;28;20425;-83
2021/06/02 02:25:13;;;;;;;5.78;2.72;;;18.00;95.10;;;;;;4138025;28;20264;-83
2021/06/02 02:27:28;;;;;;;5.63;2.88;;;18.00;94.40;;;;;;4125590;28;20223;-83
2021/06/02 02:29:35;;;;;;;5.05;2.58;;;18.00;95.70;;;;;;4124906;28;20042;-83
2021/06/02 02:31:58;;;;;;;4.93;2.75;;;18.00;96.40;;;;;;4126287;28;20035;-83
2021/06/02 02:34:08;;;;;;;4.90;2.95;;;18.00;96.20;;;;;;4124456;28;20086;-83
2021/06/02 02:36:21;;;;;;;3.33;2.58;;;17.90;98.70;;;;;;4152569;28;20512;-83
2021/06/02 02:38:40;;;;;;;5.85;2.97;;;17.90;97.50;;;;;;4138628;28;20045;-83
2021/06/02 02:40:50;;;;;;;4.18;2.92;;;17.90;97.80;;;;;;4124735;28;20034;-83
2021/06/02 02:43:06;;;;;;;5.38;2.80;;;17.90;98.10;;;;;;4125137;28;20070;-83
2021/06/02 02:45:37;;;;;;;4.30;2.58;;;17.90;97.70;;;;;;4140912;28;20387;-83
2021/06/02 02:48:02;;;;;;;3.75;2.97;;;17.80;97.40;;;;;;4137550;28;20045;-83
2021/06/02 02:50:34;;;;;;;5.68;3.03;;;17.80;99.00;;;;;;4121632;28;20043;-83
2021/06/02 02:53:11;;;;;;;6.70;3.00;;;17.80;99.90;;;;;;4139596;28;20034;-84
2021/06/02 02:55:33;;;;;;;5.35;2.80;;;17.70;98.90;;;;;;4137797;28;20120;-83
2021/06/02 02:57:53;;;;;;;6.43;3.35;;;17.70;99.40;;;;;;4123632;28;20121;-83
2021/06/02 03:00:00;;;;;;;5.75;3.67;;;17.70;99.10;;;;;;4136532;28;20125;-83
2021/06/02 03:02:07;;;;;;;4.90;3.30;;;17.70;99.60;;;;;;4125101;28;20046;-83
2021/06/02 03:04:20;;;;;;;5.90;3.17;;;17.80;99.10;;;;;;4123875;28;20057;-83
2021/06/02 03:06:38;;;;;;;5.20;2.63;;;17.70;99.70;;;;;;4135712;28;20073;-83
2021/06/02 03:09:10;;;;;;;3.33;2.60;;;17.70;99.90;;;;;;4142037;28;20034;-83
2021/06/02 03:11:17;;;;;;;5.43;3.10;;;17.80;99.90;;;;;;4123596;28;20138;-84
2021/06/02 03:13:29;;;;;;;4.00;2.80;;;17.80;99.80;;;;;;4141247;28;20038;-84
2021/06/02 03:15:38;;;;;;;4.82;3.20;;;17.80;99.90;;;;;;4138515;28;20102;-83
2021/06/02 03:17:45;;;;;;;5.35;3.00;;;17.70;99.90;;;;;;4121029;28;20045;-83
2021/06/02 03:20:07;;;;;;;4.32;3.00;;;17.70;99.90;;;;;;4142565;28;20058;-83
2021/06/02 03:22:12;;;;;;;5.60;3.40;;;17.70;99.90;;;;;;4140287;28;20034;-83
2021/06/02 03:24:30;;;;;;;3.60;2.78;;;17.70;99.90;;;;;;4140650;28;20038;-83
2021/06/02 03:26:41;;;;;;;5.80;3.17;;;17.70;99.90;;;;;;4141191;28;20049;-83
2021/06/02 03:29:03;;;;;;;4.53;3.05;;;17.70;99.90;;;;;;4124308;28;20030;-83
2021/06/02 03:31:47;;;;;;;9.18;3.42;;;17.70;99.90;;;;;;4124268;28;20102;-83
2021/06/02 03:34:12;;;;;;;4.53;2.75;;;17.60;99.90;;;;;;4127794;28;20132;-83
2021/06/02 03:36:36;;;;;;;4.53;2.78;;;17.60;99.90;;;;;;4124127;28;20039;-83
2021/06/02 03:38:39;;;;;;;2.97;2.65;;;17.60;99.90;;;;;;4130620;28;20498;-83
2021/06/02 03:41:11;;;;;;;4.63;2.85;;;17.60;99.90;;;;;;4123720;28;20397;-84
2021/06/02 03:43:33;;;;;;;5.07;3.13;;;17.60;99.90;;;;;;4136908;28;20641;-83
2021/06/02 03:46:04;;;;;;;4.18;2.90;;;17.60;99.90;;;;;;4138597;28;20053;-83
2021/06/02 03:48:07;;;;;;;3.90;2.75;;;17.60;99.90;;;;;;4122840;28;20034;-83
2021/06/02 03:50:17;;;;;;;4.13;3.13;;;17.60;99.90;;;;;;4139704;28;20041;-83
2021/06/02 03:52:48;;;;;;;4.05;3.10;;;17.60;99.90;;;;;;4123080;28;20073;-83
2021/06/02 03:55:04;;;;;;;4.85;3.15;;;17.60;99.90;;;;;;4120641;28;20175;-83
2021/06/02 03:57:23;;;;;;;5.07;3.58;;;17.50;99.90;;;;;;4124514;28;20466;-83
2021/06/02 03:59:42;;;;;;;5.32;3.50;;;17.50;99.90;;;;;;4139464;28;21456;-83
2021/06/02 04:01:50;;;;;;;4.68;3.00;;;17.50;99.90;;;;;;4138851;28;20490;-83
2021/06/02 04:04:24;;;;;;;6.25;3.58;;;17.50;99.90;;;;;;4136868;28;20038;-83
2021/06/02 04:06:38;;;;;;;6.00;3.35;;;17.50;99.90;;;;;;4122351;28;20026;-83
2021/06/02 04:08:51;;;;;;;4.80;3.22;;;17.50;99.90;;;;;;4124568;28;20031;-83
2021/06/02 04:10:52;;;;;;;;;;;17.40;99.90;;;;;;4124428;28;20495;-83
2021/06/02 04:13:11;;;;;;;6.82;3.45;;;17.40;99.90;;;;;;4120862;28;19918;-83
2021/06/02 04:15:13;;;;;;;6.30;3.75;;;17.40;99.90;;;;;;4120848;28;20038;-83
2021/06/02 04:17:16;;;;;;;3.97;3.13;;;17.40;99.90;;;;;;4138952;28;20069;-83
2021/06/02 04:19:17;;;;;;;4.22;2.97;;;17.40;99.90;;;;;;4121789;28;20026;-83
2021/06/02 04:21:22;;;;;;;7.43;3.38;;;17.40;99.90;;;;;;4140422;28;20477;-83
2021/06/02 04:23:22;;;;;;;6.13;3.17;;;17.40;99.90;;;;;;4138058;28;20046;-83
2021/06/02 04:25:24;;;;;;;5.07;3.33;;;17.40;99.90;;;;;;4139970;28;20049;-83
2021/06/02 04:27:25;;;;;;;6.07;3.65;;;17.40;99.90;;;;;;4140463;28;20120;-83
2021/06/02 04:29:27;;;;;;;4.72;3.13;;;17.40;99.90;;;;;;4121856;28;20038;-83
2021/06/02 04:31:29;;;;;;;4.10;3.20;;;17.40;99.90;;;;;;4141694;28;20042;-83
2021/06/02 04:33:32;;;;;;;4.20;3.00;;;17.40;99.90;;;;;;4138295;28;20108;-83
2021/06/02 04:35:37;;;;;;;4.95;3.25;;;17.40;99.90;;;;;;4121693;28;20034;-83
2021/06/02 04:37:38;;;;;;;4.47;3.05;;;17.40;99.90;;;;;;4141018;28;20046;-83
2021/06/02 04:39:42;;;;;;;3.38;2.90;;;17.40;99.90;;;;;;4138748;28;20100;-83
2021/06/02 04:41:43;;;;;;;4.15;3.00;;;17.40;99.90;;;;;;4136008;28;20312;-83
2021/06/02 04:43:46;;;;;;;6.25;3.00;;;17.40;99.90;;;;;;4117481;28;20030;-83
2021/06/02 04:46:06;;;;;;;;;;;17.40;99.90;;;;;;4123789;28;20061;-83
2021/06/02 04:48:08;;;;;;;4.40;3.47;;;17.40;99.90;;;;;;4121665;28;20638;-83
2021/06/02 04:50:28;;;;;;;6.95;3.90;;;17.40;99.90;;;;;;4142876;28;20030;-84
2021/06/02 04:52:32;;;;;;;6.45;3.63;;;17.50;99.90;;;;;;4139106;28;20041;-78
2021/06/02 04:55:03;;;;;;;4.70;3.28;;;17.50;99.90;;;;;;4141426;28;20724;-79
2021/06/02 04:57:32;;;;;;;7.55;3.55;;;17.50;99.90;;;;;;4139343;28;20056;-78
2021/06/02 05:00:02;;;;;;;5.40;3.75;;;17.50;99.90;;;;;;4138108;28;20549;-78
2021/06/02 05:02:36;;;;;;;5.28;3.85;;;17.60;99.90;;;;;;4138692;28;20083;-78
2021/06/02 05:05:03;;;;;;;5.32;3.97;;;17.60;99.90;;;;;;4144879;28;20017;-78
2021/06/02 05:07:28;;;;;;;6.25;3.33;;;17.70;99.90;;;;;;4123240;28;20043;-78
2021/06/02 05:09:55;;;;;;;6.10;3.65;;;17.60;99.90;;;;;;4125560;28;20042;-78
2021/06/02 05:12:46;;;;;;;5.65;3.72;;;17.70;99.90;;;;;;4144156;28;20060;-78
2021/06/02 05:15:14;;;;;;;5.25;3.55;;;17.70;99.90;;;;;;4126201;28;20085;-79
2021/06/02 05:17:22;;;;;;;5.20;3.70;;;17.70;99.90;;;;;;4145562;28;20034;-78
2021/06/02 05:22:07;;;;;;;8.15;4.38;;;17.80;99.90;;;;;;4146930;28;20025;-79
2021/06/02 05:24:25;;;;;;;8.05;3.88;;;17.90;99.90;;;;;;4132699;28;20737;-79
2021/06/02 05:27:04;;;;;;;7.22;4.28;;;17.90;99.90;;;;;;4137123;28;20032;-79
2021/06/02 05:29:31;;;;;;;9.93;5.05;;;17.90;99.90;;;;;;4146349;28;20077;-79
2021/06/02 05:32:11;;;;;;;6.90;4.40;;;18.00;99.90;;;;;;4144599;28;22373;-80
2021/06/02 05:34:36;;;;;;;7.95;4.88;;;18.00;99.90;;;;;;4126913;28;20069;-81
2021/06/02 05:36:59;;;;;;;11.20;5.05;;;18.10;99.90;;;;;;4115232;28;20038;-81
2021/06/02 05:39:09;;;;;;;11.43;5.15;;;18.20;99.90;;;;;;4146913;28;20041;-81
2021/06/02 05:41:43;;;;;;;10.45;4.80;;;18.20;99.90;;;;;;4148500;28;20037;-81
2021/06/02 05:43:52;;;;;;;6.88;4.45;;;18.30;99.90;;;;;;4145969;28;20037;-81
2021/06/02 05:46:51;;;;;;;9.25;4.53;;;18.30;99.90;;;;;;4142789;28;20491;-81
2021/06/02 05:49:18;;;;;;;8.25;5.05;;;18.40;99.90;;;;;;4136736;28;20303;-81
2021/06/02 05:51:59;;;;;;;6.65;4.20;;;18.60;99.90;;;;;;4122416;28;20038;-82
2021/06/02 05:54:30;;;;;;;7.00;4.38;;;19.00;99.90;;;;;;4123867;28;20046;-82
2021/06/02 05:57:11;;;;;;;7.28;4.20;;;19.60;99.90;;;;;;4140096;28;20042;-82
2021/06/02 05:59:17;;;;;;;9.68;4.50;;;20.20;99.90;;;;;;4137873;28;20044;-82
2021/06/02 06:01:39;;;;;;;6.70;4.53;;;20.80;99.90;;;;;;4145225;28;20096;-82
2021/06/02 06:04:04;;;;;;;5.47;3.73;;;21.30;99.90;;;;;;4124536;28;20046;-81
2021/06/02 06:06:24;;;;;;;11.45;4.55;;;21.80;99.90;;;;;;4125537;28;20042;-81
2021/06/02 06:08:46;;;;;;;7.40;3.35;;;22.40;99.90;;;;;;4143031;28;20260;-82
2021/06/02 06:10:59;;;;;;;8.40;3.78;;;22.80;99.00;;;;;;4145433;28;20045;-81
2021/06/02 06:13:30;;;;;;;5.57;3.33;;;23.30;96.60;;;;;;4127823;28;20086;-81
2021/06/02 06:15:46;;;;;;;7.95;3.33;;;23.70;84.00;;;;;;4124460;28;20080;-82
2021/06/02 06:17:59;;;;;;;5.07;2.55;;;23.90;77.50;;;;;;4124096;28;20558;-81
2021/06/02 06:20:15;;;;;;;3.70;2.65;;;24.10;75.30;;;;;;4126694;28;20046;-81
2021/06/02 06:22:39;;;;;;;7.78;3.13;;;24.40;75.10;;;;;;4146430;28;20112;-82
2021/06/02 06:25:17;;;;;;;5.20;2.80;;;24.50;70.40;;;;;;4140024;28;20107;-81
2021/06/02 06:27:30;;;;;;;9.32;3.28;;;24.70;70.20;;;;;;4097376;28;20430;-82
2021/06/02 06:30:04;;;;;;;4.35;2.70;;;24.80;66.60;;;;;;4143455;28;20030;-82
2021/06/02 06:32:05;;;;;;;;;;;24.80;64.40;;;;;;4129525;28;25122;-82
2021/06/02 06:34:14;;;;;;;4.35;2.70;;;24.60;64.10;;;;;;4125392;28;19922;-82
2021/06/02 06:36:18;;;;;;;4.47;2.45;;;24.50;63.30;;;;;;4139387;28;20044;-82
2021/06/02 06:38:45;;;;;;;5.57;2.80;;;24.50;65.00;;;;;;4140496;28;20117;-82
2021/06/02 06:40:49;;;;;;;7.00;2.95;;;24.30;64.80;;;;;;4132777;28;20414;-81
2021/06/02 06:42:53;;;;;;;7.20;2.80;;;24.20;64.60;;;;;;4139518;28;20045;-81
2021/06/02 06:44:57;;;;;;;4.43;2.60;;;24.10;65.40;;;;;;4139593;28;20074;-81
2021/06/02 06:47:01;;;;;;;8.93;2.90;;;24.00;65.30;;;;;;4140833;28;20034;-81
2021/06/02 06:49:03;;;;;;;8.68;3.05;;;23.80;65.80;;;;;;4140131;28;20118;-81
2021/06/02 06:51:06;;;;;;;5.35;2.75;;;23.70;66.50;;;;;;4145301;28;20041;-81
2021/06/02 06:53:08;;;;;;;3.35;2.15;;;23.70;66.20;;;;;;4135841;28;20041;-81
2021/06/02 06:55:10;;;;;;;5.97;2.70;;;23.60;67.00;;;;;;4145171;28;20112;-81
2021/06/02 06:57:11;;;;;;;6.47;3.17;;;23.60;68.00;;;;;;4125120;28;20042;-81
2021/06/02 06:59:12;;;;;;;4.43;2.72;;;23.40;68.10;;;;;;4148083;28;20052;-81
2021/06/02 07:01:17;;;;;;;4.68;2.53;;;23.40;69.80;;;;;;4143775;28;20049;-82
2021/06/02 07:03:19;;;;;;;7.45;2.95;;;23.30;68.10;;;;;;4140291;28;20041;-82
2021/06/02 07:05:22;;;;;;;4.23;2.90;;;23.20;68.90;;;;;;4147399;28;20029;-81
2021/06/02 07:07:24;;;;;;;5.18;2.60;;;23.00;70.20;;;;;;4144019;28;20486;-81
2021/06/02 07:09:25;;;;;;;6.30;2.97;;;22.90;69.70;;;;;;4137093;28;20045;-82
2021/06/02 07:11:26;;;;;;;6.10;2.88;;;22.80;69.80;;;;;;4142374;28;20111;-81
2021/06/02 07:13:29;;;;;;;4.22;2.30;;;22.70;68.00;;;;;;4127489;28;20065;-81
2021/06/02 07:15:30;;;;;;;4.47;2.38;;;22.60;66.60;;;;;;4140175;28;20029;-81
2021/06/02 07:17:32;;;;;;;4.05;2.67;;;22.40;66.20;;;;;;4122765;28;20046;-81
2021/06/02 07:19:35;;;;;;;5.38;3.05;;;22.40;67.40;;;;;;4144329;28;20530;-81
2021/06/02 07:21:40;;;;;;;7.13;3.25;;;22.20;67.20;;;;;;4141509;28;21083;-81
2021/06/02 07:23:41;;;;;;;5.32;2.83;;;22.20;67.90;;;;;;4146269;28;20026;-82
2021/06/02 07:25:43;;;;;;;8.75;2.70;;;22.10;68.50;;;;;;4142337;28;20477;-81
2021/06/02 07:27:45;;;;;;;5.07;2.70;;;22.10;69.70;;;;;;4141117;28;20542;-81
2021/06/02 07:29:46;;;;;;;;;;;22.10;69.80;;;;;;4141109;28;20037;-81
2021/06/02 07:31:47;;;;;;;4.55;2.80;;;22.00;70.70;;;;;;4145377;28;19912;-82
2021/06/02 07:33:47;;;;;;;5.57;2.53;;;22.00;71.60;;;;;;4128083;28;20487;-81
2021/06/02 07:35:48;;;;;;;5.80;2.95;;;21.90;71.50;;;;;;4144856;28;20545;-81
2021/06/02 07:37:50;;;;;;;8.93;2.30;;;21.80;71.60;;;;;;4126760;28;20034;-81
2021/06/02 07:39:52;;;;;;;6.57;2.78;;;21.90;73.00;;;;;;4122309;28;20034;-81
2021/06/02 07:41:52;;;;;;;6.45;2.65;;;21.90;73.40;;;;;;4146749;28;20498;-80
2021/06/02 07:43:53;;;;;;;3.75;2.47;;;21.90;73.50;;;;;;4151933;28;20030;-80
2021/06/02 07:45:54;;;;;;;6.22;3.22;;;21.90;73.10;;;;;;4143509;28;20099;-80
2021/06/02 07:47:54;;;;;;;4.57;2.80;;;21.90;72.90;;;;;;4127381;28;20118;-80
2021/06/02 07:49:56;;;;;;;6.05;2.90;;;21.90;72.80;;;;;;4142296;28;20626;-79
2021/06/02 07:52:00;;;;;;;3.60;2.50;;;22.00;73.60;;;;;;4149010;28;20030;-79
2021/06/02 07:54:00;;;;;;;6.50;2.53;;;22.00;72.90;;;;;;4123758;28;20023;-79
2021/06/02 07:56:01;;;;;;;3.35;1.90;;;22.10;73.80;;;;;;4141590;28;20577;-80
2021/06/02 07:58:02;;;;;;;3.50;2.17;;;22.10;74.60;;;;;;4141271;28;20479;-79
2021/06/02 08:00:04;;;;;;;4.20;2.28;;;22.20;74.40;;;;;;4128730;28;20569;-79
2021/06/02 08:02:05;;;;;;;3.42;2.10;;;22.20;73.30;;;;;;4141532;28;20537;-79
2021/06/02 08:04:06;;;;;;;3.60;2.38;;;22.20;74.20;;;;;;4142683;28;20046;-79
2021/06/02 08:06:06;;;;;;;5.60;2.65;;;22.30;73.90;;;;;;4141832;28;20161;-80
2021/06/02 08:08:08;;;;;;;4.95;2.50;;;22.30;73.70;;;;;;4123177;28;20050;-79
2021/06/02 08:10:10;;;;;;;3.10;2.20;;;22.30;72.60;;;;;;4125221;28;20050;-80
2021/06/02 08:12:11;;;;;;;6.57;2.60;;;22.40;73.80;;;;;;4123158;28;20533;-79
2021/06/02 08:14:12;;;;;;;4.80;2.55;;;22.40;73.10;;;;;;4144859;28;20037;-79
2021/06/02 08:16:13;;;;;;;3.38;2.20;;;22.50;73.80;;;;;;4140138;28;20034;-79
2021/06/02 08:18:20;;;;;;;2.75;2.20;;;22.50;72.60;;;;;;4144083;28;20093;-79
2021/06/02 08:20:21;;;;;;;3.75;2.20;;;22.60;72.70;;;;;;4149609;28;20107;-80
2021/06/02 08:22:22;;;;;;;3.72;2.45;;;22.60;70.50;;;;;;4127947;28;20495;-80
2021/06/02 08:24:23;;;;;;;3.17;2.20;;;22.70;70.20;;;;;;4133246;28;20031;-80
2021/06/02 08:26:51;;;;;;;3.30;2.35;;;22.70;70.10;;;;;;4145690;28;20528;-79
2021/06/02 08:28:52;;;;;;;3.15;1.90;;;22.80;70.40;;;;;;4137477;28;20022;-79
2021/06/02 08:30:53;;;;;;;4.03;2.50;;;22.90;72.30;;;;;;4133048;28;20049;-80
2021/06/02 08:32:54;;;;;;;3.50;2.22;;;22.90;69.90;;;;;;4144875;28;20030;-80
2021/06/02 08:35:01;;;;;;;4.88;2.40;;;23.00;71.70;;;;;;4127209;28;20046;-80
2021/06/02 08:37:04;;;;;;;3.80;2.60;;;23.10;71.30;;;;;;4149572;28;20034;-79
2021/06/02 08:39:07;;;;;;;3.47;2.35;;;23.20;68.80;;;;;;4143115;28;20084;-79
2021/06/02 08:41:08;;;;;;;2.55;2.08;;;23.30;68.50;;;;;;4137472;28;20502;-81
2021/06/02 08:43:09;;;;;;;2.65;2.00;;;23.40;68.30;;;;;;4143362;28;20045;-81
2021/06/02 08:45:11;;;;;;;4.03;2.33;;;23.40;68.90;;;;;;4125534;28;20030;-80
2021/06/02 08:47:12;;;;;;;3.83;2.30;;;23.50;67.30;;;;;;4142493;28;20558;-80
2021/06/02 08:49:14;;;;;;;5.82;2.53;;;23.60;68.10;;;;;;4143767;28;20038;-80
2021/06/02 08:51:18;;;;;;;4.28;2.42;;;23.70;68.60;;;;;;4145555;28;20081;-81
2021/06/02 08:53:20;;;;;;;4.80;2.20;;;23.80;68.30;;;;;;4138309;28;20029;-81
2021/06/02 08:55:22;;;;;;;5.68;2.25;;;23.80;66.70;;;;;;4139058;28;20042;-80
2021/06/02 08:57:22;;;;;;;3.93;2.30;;;24.00;66.40;;;;;;4140051;28;20033;-80
2021/06/02 08:59:23;;;;;;;2.70;2.08;;;24.10;67.80;;;;;;4144062;28;20765;-80
2021/06/02 09:01:25;;;;;;;4.13;2.40;;;24.10;67.60;;;;;;4146456;28;20048;-80
2021/06/02 09:03:30;;;;;;;3.30;2.15;;;24.30;67.70;;;;;;4141424;28;20390;-80
2021/06/02 09:05:31;;;;;;;4.05;2.00;;;24.40;67.00;;;;;;4126936;28;20105;-79
2021/06/02 09:07:34;;;;;;;4.93;2.00;;;24.50;63.20;;;;;;4148004;28;20026;-80
2021/06/02 09:09:35;;;;;;;3.05;2.20;;;24.60;61.40;;;;;;4143644;28;20061;-80
2021/06/02 09:11:38;;;;;;;4.50;2.03;;;24.70;61.20;;;;;;4142087;28;20080;-79
2021/06/02 09:13:39;;;;;;;5.60;2.03;;;24.80;60.60;;;;;;4144513;28;20022;-79
2021/06/02 09:15:47;;;;;;;4.13;2.13;;;25.00;61.50;;;;;;4147279;28;20040;-79
2021/06/02 09:17:52;;;;;;;3.05;2.08;;;25.10;59.10;;;;;;4144765;28;20030;-80
2021/06/02 09:19:59;;;;;;;2.38;1.90;;;25.20;58.30;;;;;;4145305;28;20111;-80
2021/06/02 09:22:00;;;;;;;4.10;2.33;;;25.30;58.20;;;;;;4147230;28;20050;-79
2021/06/02 09:24:02;;;;;;;4.43;2.03;;;25.40;59.40;;;;;;4131622;28;20126;-80
2021/06/02 09:26:21;;;;;;;2.38;1.75;;;25.50;57.50;;;;;;4138365;28;20038;-80
2021/06/02 09:28:21;;;;;;;5.05;1.90;;;25.50;56.30;;;;;;4143421;28;20030;-79
2021/06/02 09:30:27;;;;;;;4.43;1.88;;;25.60;57.70;;;;;;4151190;28;20037;-79
2021/06/02 09:32:44;;;;;;;3.42;1.75;;;25.70;54.80;;;;;;4143237;28;20026;-79
2021/06/02 09:34:45;;;;;;;1.52;1.38;;;25.80;56.80;;;;;;4145353;28;20089;-79
2021/06/02 09:36:48;;;;;;;3.45;2.00;;;25.90;56.30;;;;;;4146224;28;20030;-80
2021/06/02 09:38:53;;;;;;;3.35;1.92;;;25.90;56.20;;;;;;4143402;28;20080;-79
2021/06/02 09:40:55;;;;;;;2.38;1.60;;;26.10;55.10;;;;;;4150541;28;20144;-80
2021/06/02 09:42:58;;;;;;;2.53;1.52;;;26.20;54.10;;;;;;4146579;28;20041;-79
2021/06/02 09:45:14;;;;;;;2.20;1.40;;;26.20;57.50;;;;;;4143150;28;20049;-79
2021/06/02 09:47:20;;;;;;;4.03;1.38;;;26.30;55.40;;;;;;4149228;28;20034;-79
2021/06/02 09:49:23;;;;;;;2.80;1.63;;;26.40;49.20;;;;;;4144771;28;20034;-79
2021/06/02 09:51:29;;;;;;;;;;;26.50;54.90;;;;;;4127275;28;20502;-79
2021/06/02 09:53:53;;;;;;;5.93;1.75;;;26.50;53.90;;;;;;4145370;28;19909;-79
2021/06/02 09:55:54;;;;;;;3.33;2.20;;;26.50;50.50;;;;;;4150365;28;20033;-79
2021/06/02 09:58:01;;;;;;;4.25;2.08;;;26.50;50.50;;;;;;4150910;28;20037;-79
2021/06/02 10:00:04;;;;;;;6.00;2.70;;;26.60;51.70;;;;;;4152263;28;20061;-79
2021/06/02 10:02:04;;;;;;;2.20;1.67;;;26.60;48.60;;;;;;4149733;28;20467;-80
2021/06/02 10:04:11;;;;;;;3.08;1.58;;;26.60;47.00;;;;;;4156115;28;20022;-80
2021/06/02 10:06:15;;;;;;;1.58;1.48;;;26.70;48.20;;;;;;4146646;28;20030;-80
2021/06/02 10:08:32;;;;;;;1.65;1.38;;;26.80;48.40;;;;;;4149772;28;20068;-80
2021/06/02 10:10:33;;;;;;;2.97;1.70;;;26.80;50.30;;;;;;4145649;28;20054;-80
2021/06/02 10:12:34;;;;;;;2.33;1.60;;;26.90;50.50;;;;;;4129571;28;20038;-80
2021/06/02 10:14:54;;;;;;;2.10;1.58;;;27.00;51.70;;;;;;4145791;28;20694;-80
2021/06/02 10:16:55;;;;;;;2.72;1.60;;;27.00;47.70;;;;;;4132123;28;20030;-80
2021/06/02 10:18:56;;;;;;;2.15;1.58;;;27.10;48.00;;;;;;4146093;28;20053;-80
2021/06/02 10:21:14;;;;;;;2.83;1.92;;;27.00;49.60;;;;;;4132103;28;20045;-80
2021/06/02 10:23:16;;;;;;;3.67;1.80;;;27.10;49.20;;;;;;4148324;28;20069;-80
2021/06/02 10:25:16;;;;;;;1.80;1.50;;;27.10;51.30;;;;;;4147681;28;20156;-80
2021/06/02 10:27:19;;;;;;;3.03;1.77;;;27.20;49.70;;;;;;4150806;28;20034;-80
2021/06/02 10:29:20;;;;;;;;;;;27.40;48.00;;;;;;4151155;28;20036;-80
2021/06/02 10:31:20;;;;;;;1.75;1.23;;;27.40;46.60;;;;;;4146794;28;19953;-81
2021/06/02 10:33:21;;;;;;;3.88;1.95;;;27.50;47.50;;;;;;4148420;28;20026;-80
2021/06/02 10:35:21;;;;;;;2.83;1.88;;;27.50;47.70;;;;;;4152766;28;20120;-81
2021/06/02 10:37:24;;;;;;;4.13;1.58;;;27.50;42.50;;;;;;4147581;28;20038;-81
2021/06/02 10:39:26;;;;;;;2.17;1.40;;;27.40;44.00;;;;;;4147938;28;20060;-81
2021/06/02 10:41:35;;;;;;;2.28;1.17;;;27.40;43.90;;;;;;4149519;28;20426;-81
2021/06/02 10:43:42;;;;;;;2.95;1.50;;;27.40;43.90;;;;;;4133564;28;20064;-80
2021/06/02 10:46:06;;;;;;;3.30;1.50;;;27.50;45.10;;;;;;4129286;28;20026;-81
2021/06/02 10:48:07;;;;;;;4.03;1.40;;;27.50;44.60;;;;;;4139339;28;20434;-80
2021/06/02 10:50:30;;;;;;;3.63;1.52;;;27.60;43.50;;;;;;4144807;28;20097;-80
2021/06/02 10:52:41;;;;;;;3.60;1.77;;;27.60;43.60;;;;;;4139385;28;20030;-80
2021/06/02 10:54:42;;;;;;;2.85;1.55;;;27.60;44.80;;;;;;4121998;28;20030;-80
2021/06/02 10:57:03;;;;;;;3.88;1.70;;;27.70;46.00;;;;;;4148416;28;20614;-80
2021/06/02 10:59:25;;;;;;;3.78;1.50;;;27.70;43.30;;;;;;4143375;28;20749;-80
2021/06/02 11:01:25;;;;;;;2.70;1.70;;;27.70;44.50;;;;;;4142893;28;20099;-80
2021/06/02 11:03:29;;;;;;;2.72;1.63;;;27.80;44.20;;;;;;4125035;28;20042;-80
2021/06/02 11:05:30;;;;;;;2.03;1.60;;;27.70;42.80;;;;;;4136252;28;20133;-80
2021/06/02 11:07:36;;;;;;;2.83;1.70;;;27.80;43.00;;;;;;4128281;28;20027;-80
2021/06/02 11:10:05;;;;;;;1.35;1.23;;;27.70;41.70;;;;;;4142697;28;20147;-80
2021/06/02 11:12:06;;;;;;;2.80;1.38;;;27.80;43.30;;;;;;4141355;28;20285;-80
2021/06/02 11:14:16;;;;;;;2.42;1.63;;;27.80;43.00;;;;;;4143866;28;20461;-80
2021/06/02 11:16:39;;;;;;;3.25;1.70;;;27.90;42.00;;;;;;4124710;28;20390;-80
2021/06/02 11:18:39;;;;;;;3.72;1.90;;;27.90;42.50;;;;;;4125541;28;20542;-80
2021/06/02 11:20:45;;;;;;;5.40;1.80;;;27.90;42.80;;;;;;4147757;28;20061;-80